Time;durP1;ratioP1;P1;durP2;ratioP2;P2;SDS_P1;SDS_P2;PMS_P1;PMS_P2;Temp;Humidity;BMP_temperature;BMP_pressure;BME280_temperature;BME280_humidity;BME280_pressure;Samples;Min_cycle;Max_cycle;Signal;HPM_P1;HPM_P2
2021/09/23 00:02:04;;;;;;;13.85;6.93;;;9.70;99.90;;;;;;5036767;28;20075;-72
2021/09/23 00:04:34;;;;;;;15.20;8.98;;;9.70;99.90;;;;;;5032814;28;20131;-72
2021/09/23 00:07:02;;;;;;;15.95;8.95;;;9.60;99.90;;;;;;5029588;28;20505;-73
2021/09/23 00:09:31;;;;;;;15.18;8.43;;;9.70;99.90;;;;;;5032206;28;20103;-72
2021/09/23 00:11:58;;;;;;;13.00;8.13;;;9.60;99.90;;;;;;5035313;28;20135;-72
2021/09/23 00:14:25;;;;;;;18.33;8.93;;;9.70;99.90;;;;;;5037172;28;20056;-72
2021/09/23 00:16:52;;;;;;;16.38;9.05;;;9.60;99.90;;;;;;5037317;28;20522;-72
2021/09/23 00:19:20;;;;;;;17.05;8.68;;;9.60;99.90;;;;;;5036673;28;20584;-73
2021/09/23 00:21:47;;;;;;;20.80;9.10;;;9.60;99.90;;;;;;5040260;28;20512;-73
2021/09/23 00:24:14;;;;;;;17.65;8.90;;;9.50;99.90;;;;;;5037119;28;20076;-73
2021/09/23 00:26:42;;;;;;;14.75;8.27;;;9.50;99.90;;;;;;5038372;28;20040;-73
2021/09/23 00:29:09;;;;;;;15.27;8.25;;;9.60;99.90;;;;;;5039256;28;20135;-73
2021/09/23 00:31:36;;;;;;;18.05;9.40;;;9.50;99.90;;;;;;5038529;28;20060;-73
2021/09/23 00:34:03;;;;;;;18.08;9.90;;;9.60;99.90;;;;;;5039179;28;20098;-73
2021/09/23 00:36:31;;;;;;;16.50;9.80;;;9.50;99.90;;;;;;5037914;28;20513;-73
2021/09/23 00:38:58;;;;;;;16.30;9.38;;;9.50;99.90;;;;;;5040750;28;20045;-74
2021/09/23 00:41:25;;;;;;;17.25;9.30;;;9.50;99.90;;;;;;5039282;28;20077;-73
2021/09/23 00:43:54;;;;;;;18.13;9.32;;;9.50;99.90;;;;;;5039683;28;20094;-73
2021/09/23 00:46:21;;;;;;;23.38;10.60;;;9.50;99.90;;;;;;5037680;28;20080;-72
2021/09/23 00:48:50;;;;;;;20.48;9.35;;;9.40;99.90;;;;;;5040509;28;20149;-73
2021/09/23 00:51:20;;;;;;;17.98;10.15;;;9.40;99.90;;;;;;5039935;28;20064;-72
2021/09/23 00:53:48;;;;;;;16.77;9.25;;;9.40;99.90;;;;;;5039874;28;20119;-72
2021/09/23 00:56:15;;;;;;;15.88;9.25;;;9.40;99.90;;;;;;5039821;28;20440;-73
2021/09/23 00:58:42;;;;;;;17.98;9.57;;;9.40;99.90;;;;;;5038913;28;20114;-73
2021/09/23 01:01:10;;;;;;;17.65;8.70;;;9.30;99.90;;;;;;5041071;28;20068;-73
2021/09/23 01:03:37;;;;;;;17.63;8.65;;;9.30;99.90;;;;;;5041838;28;20478;-72
2021/09/23 01:06:04;;;;;;;17.15;8.68;;;9.30;99.90;;;;;;5041453;28;20067;-72
2021/09/23 01:08:32;;;;;;;15.70;8.73;;;9.40;99.90;;;;;;5044496;28;20044;-72
2021/09/23 01:10:59;;;;;;;18.85;10.13;;;9.30;99.90;;;;;;5042857;28;20052;-72
2021/09/23 01:13:26;;;;;;;17.52;8.93;;;9.30;99.90;;;;;;5042142;28;20076;-71
2021/09/23 01:15:52;;;;;;;21.77;11.52;;;9.20;99.90;;;;;;5040874;28;20587;-72
2021/09/23 01:18:22;;;;;;;17.80;10.13;;;9.20;99.90;;;;;;5042570;28;20102;-71
2021/09/23 01:20:48;;;;;;;16.83;9.55;;;9.20;99.90;;;;;;5041559;28;20520;-71
2021/09/23 01:23:17;;;;;;;18.27;10.32;;;9.10;99.90;;;;;;5039791;28;20164;-72
2021/09/23 01:25:44;;;;;;;17.60;10.98;;;9.10;99.90;;;;;;5041391;28;20493;-71
2021/09/23 01:28:11;;;;;;;23.25;10.80;;;9.20;99.90;;;;;;5040933;28;20572;-72
2021/09/23 01:30:38;;;;;;;22.38;11.10;;;9.20;99.90;;;;;;5040726;28;20126;-72
2021/09/23 01:33:05;;;;;;;17.60;9.93;;;9.30;99.90;;;;;;5042055;28;20076;-71
2021/09/23 01:35:32;;;;;;;18.33;10.15;;;9.20;99.90;;;;;;5040131;28;20551;-72
2021/09/23 01:37:59;;;;;;;19.08;9.77;;;9.10;99.90;;;;;;5042718;28;20124;-72
2021/09/23 01:40:27;;;;;;;14.82;8.52;;;9.10;99.90;;;;;;5040689;28;20149;-71
2021/09/23 01:42:54;;;;;;;16.38;9.10;;;9.10;99.90;;;;;;5040170;28;20520;-70
2021/09/23 01:45:21;;;;;;;17.20;9.65;;;9.10;99.90;;;;;;5037920;28;20053;-71
2021/09/23 01:47:48;;;;;;;17.33;8.80;;;9.10;99.90;;;;;;5040223;28;20048;-71
2021/09/23 01:50:16;;;;;;;16.38;8.70;;;9.10;99.90;;;;;;5039427;28;20223;-71
2021/09/23 01:52:43;;;;;;;18.58;10.02;;;9.00;99.90;;;;;;5041719;28;20056;-71
2021/09/23 01:55:11;;;;;;;18.25;9.50;;;9.10;99.90;;;;;;5039812;28;20068;-72
2021/09/23 01:57:40;;;;;;;17.25;8.68;;;9.00;99.90;;;;;;5041342;28;20452;-71
2021/09/23 02:00:08;;;;;;;17.38;9.38;;;9.00;99.90;;;;;;5039753;28;20079;-71
2021/09/23 02:02:35;;;;;;;20.83;10.23;;;9.00;99.90;;;;;;5039568;28;20065;-71
2021/09/23 02:05:02;;;;;;;13.85;8.65;;;9.00;99.90;;;;;;5039961;28;20049;-71
2021/09/23 02:07:29;;;;;;;19.90;9.52;;;9.00;99.90;;;;;;5040341;28;20152;-71
2021/09/23 02:09:56;;;;;;;17.27;9.52;;;9.20;99.90;;;;;;5039927;28;20084;-71
2021/09/23 02:12:23;;;;;;;16.20;10.20;;;9.30;99.90;;;;;;5038970;28;20048;-74
2021/09/23 02:14:51;;;;;;;19.05;10.07;;;9.20;99.90;;;;;;5040687;28;20072;-74
2021/09/23 02:17:18;;;;;;;21.92;10.20;;;9.30;99.90;;;;;;5039371;28;20105;-75
2021/09/23 02:19:45;;;;;;;18.13;9.95;;;9.20;99.90;;;;;;5042600;28;20049;-73
2021/09/23 02:22:12;;;;;;;21.15;9.65;;;9.20;99.90;;;;;;5040031;28;20801;-75
2021/09/23 02:24:39;;;;;;;17.90;9.20;;;9.30;99.90;;;;;;5041433;28;20131;-75
2021/09/23 02:27:07;;;;;;;16.40;9.30;;;9.30;99.90;;;;;;5041407;28;20056;-75
2021/09/23 02:29:34;;;;;;;17.60;9.07;;;9.20;99.90;;;;;;5038449;28;20070;-72
2021/09/23 02:32:04;;;;;;;18.40;9.55;;;9.20;99.90;;;;;;5041999;28;20063;-75
2021/09/23 02:34:31;;;;;;;17.08;9.68;;;9.10;99.90;;;;;;5041997;28;20059;-74
2021/09/23 02:36:58;;;;;;;21.92;8.48;;;9.00;99.90;;;;;;5041065;28;20131;-74
2021/09/23 02:39:25;;;;;;;14.85;8.40;;;8.90;99.90;;;;;;5040498;28;20639;-74
2021/09/23 02:41:52;;;;;;;18.15;9.80;;;8.80;99.90;;;;;;5041669;28;20055;-74
2021/09/23 02:44:20;;;;;;;15.48;9.07;;;8.80;99.90;;;;;;5039660;28;20106;-74
2021/09/23 02:46:47;;;;;;;23.50;10.18;;;8.80;99.90;;;;;;5040454;28;20483;-74
2021/09/23 02:49:19;;;;;;;20.77;9.60;;;8.80;99.90;;;;;;5039700;28;20171;-74
2021/09/23 02:51:46;;;;;;;23.02;10.00;;;8.70;99.90;;;;;;5040072;28;20059;-74
2021/09/23 02:54:13;;;;;;;20.38;9.27;;;8.60;99.90;;;;;;5038569;28;20536;-74
2021/09/23 02:56:39;;;;;;;22.95;9.27;;;8.60;99.90;;;;;;5036216;28;20132;-73
2021/09/23 02:59:06;;;;;;;15.73;9.02;;;8.60;99.90;;;;;;5038135;28;20053;-73
2021/09/23 03:01:33;;;;;;;17.42;9.15;;;8.70;99.90;;;;;;5039197;28;20079;-73
2021/09/23 03:04:00;;;;;;;16.80;10.00;;;8.70;99.90;;;;;;5038335;28;20582;-73
2021/09/23 03:06:29;;;;;;;17.73;9.57;;;8.60;99.90;;;;;;5037650;28;20052;-74
2021/09/23 03:08:55;;;;;;;19.30;10.07;;;8.50;99.90;;;;;;5038431;28;20465;-74
2021/09/23 03:11:22;;;;;;;19.55;9.43;;;8.50;99.90;;;;;;5036107;28;20455;-73
2021/09/23 03:13:49;;;;;;;18.80;9.48;;;8.50;99.90;;;;;;5037623;28;20087;-73
2021/09/23 03:16:16;;;;;;;15.82;8.52;;;8.50;99.90;;;;;;5036682;28;20136;-74
2021/09/23 03:18:45;;;;;;;19.50;9.10;;;8.50;99.90;;;;;;5038182;28;20057;-74
2021/09/23 03:21:12;;;;;;;15.98;8.57;;;8.50;99.90;;;;;;5037867;28;20441;-74
2021/09/23 03:23:40;;;;;;;16.48;9.02;;;8.50;99.90;;;;;;5038742;28;20459;-73
2021/09/23 03:26:07;;;;;;;18.60;9.35;;;8.50;99.90;;;;;;5036021;28;20127;-73
2021/09/23 03:28:35;;;;;;;17.95;8.93;;;8.30;99.90;;;;;;5038887;28;20075;-73
2021/09/23 03:31:02;;;;;;;16.05;8.02;;;8.30;99.90;;;;;;5038890;28;20094;-74
2021/09/23 03:33:29;;;;;;;14.27;8.90;;;8.40;99.90;;;;;;5039399;28;20127;-74
2021/09/23 03:35:56;;;;;;;17.13;8.52;;;8.30;99.90;;;;;;5036260;28;20094;-71
2021/09/23 03:38:23;;;;;;;18.45;8.93;;;8.30;99.90;;;;;;5039064;28;20083;-72
2021/09/23 03:40:52;;;;;;;19.27;9.18;;;8.30;99.90;;;;;;5037558;28;20079;-72
2021/09/23 03:43:20;;;;;;;16.67;9.82;;;8.20;99.90;;;;;;5038206;28;20497;-71
2021/09/23 03:45:49;;;;;;;16.73;8.77;;;8.30;99.90;;;;;;5038270;28;20048;-71
2021/09/23 03:48:16;;;;;;;15.10;8.65;;;8.30;99.90;;;;;;5037332;28;20167;-72
2021/09/23 03:50:43;;;;;;;15.82;8.48;;;8.20;99.90;;;;;;5038227;28;20080;-72
2021/09/23 03:53:10;;;;;;;18.40;9.18;;;8.20;99.90;;;;;;5037501;28;20473;-71
2021/09/23 03:55:37;;;;;;;18.58;9.45;;;8.20;99.90;;;;;;5037918;28;20412;-71
2021/09/23 03:58:06;;;;;;;16.17;8.43;;;8.20;99.90;;;;;;5037601;28;20088;-71
2021/09/23 04:00:33;;;;;;;17.30;9.35;;;8.30;99.90;;;;;;5038576;28;20084;-72
2021/09/23 04:03:00;;;;;;;20.40;9.40;;;8.20;99.90;;;;;;5039031;28;20087;-72
2021/09/23 04:05:27;;;;;;;19.10;9.15;;;8.20;99.90;;;;;;5035638;28;20425;-73
2021/09/23 04:07:54;;;;;;;19.73;10.18;;;8.20;99.90;;;;;;5037852;28;20053;-73
2021/09/23 04:10:22;;;;;;;18.85;9.50;;;8.20;99.90;;;;;;5034127;28;20946;-73
2021/09/23 04:12:49;;;;;;;17.17;9.43;;;8.30;99.90;;;;;;5038932;28;20586;-73
2021/09/23 04:15:18;;;;;;;21.02;9.45;;;8.20;99.90;;;;;;5035543;28;20509;-73
2021/09/23 04:17:44;;;;;;;18.48;9.60;;;8.20;99.90;;;;;;5037090;28;20101;-73
2021/09/23 04:20:12;;;;;;;14.75;8.13;;;8.10;99.90;;;;;;5036156;28;20079;-73
2021/09/23 04:22:39;;;;;;;16.60;9.02;;;8.10;99.90;;;;;;5036154;28;20052;-73
2021/09/23 04:25:06;;;;;;;20.90;9.68;;;8.10;99.90;;;;;;5037602;28;20081;-73
2021/09/23 04:27:33;;;;;;;16.48;8.65;;;8.10;99.90;;;;;;5036924;28;20064;-74
2021/09/23 04:30:00;;;;;;;16.60;8.32;;;8.00;99.90;;;;;;5038411;28;20127;-73
2021/09/23 04:32:29;;;;;;;16.88;8.68;;;8.00;99.90;;;;;;5037579;28;20516;-73
2021/09/23 04:34:56;;;;;;;19.30;9.68;;;7.90;99.90;;;;;;5037858;28;20052;-72
2021/09/23 04:37:23;;;;;;;20.98;9.68;;;7.90;99.90;;;;;;5038260;28;20489;-73
2021/09/23 04:39:50;;;;;;;15.38;9.25;;;7.90;99.90;;;;;;5041588;28;20145;-73
2021/09/23 04:42:16;;;;;;;20.15;9.82;;;7.80;99.90;;;;;;5041438;28;20079;-73
2021/09/23 04:44:43;;;;;;;18.25;8.75;;;7.80;99.90;;;;;;5040618;28;20065;-73
2021/09/23 04:47:10;;;;;;;19.60;10.07;;;7.90;99.90;;;;;;5038976;28;20110;-73
2021/09/23 04:49:39;;;;;;;18.73;9.63;;;7.80;99.90;;;;;;5042067;28;20090;-72
2021/09/23 04:52:06;;;;;;;21.77;9.15;;;7.80;99.90;;;;;;5039176;28;20048;-71
2021/09/23 04:54:33;;;;;;;17.20;9.23;;;7.90;99.90;;;;;;5041569;28;20048;-71
2021/09/23 04:57:00;;;;;;;16.23;9.20;;;7.90;99.90;;;;;;5039439;28;20097;-71
2021/09/23 04:59:27;;;;;;;22.27;9.45;;;8.10;99.90;;;;;;5037285;28;20055;-72
2021/09/23 05:01:54;;;;;;;19.65;9.57;;;8.10;99.90;;;;;;5038087;28;20502;-71
2021/09/23 05:04:21;;;;;;;19.45;9.70;;;8.10;99.90;;;;;;5033724;28;20169;-72
2021/09/23 05:06:54;;;;;;;18.70;10.10;;;8.10;99.90;;;;;;5038336;28;20052;-71
2021/09/23 05:09:21;;;;;;;16.30;9.32;;;8.00;99.90;;;;;;5039345;28;20055;-72
2021/09/23 05:11:48;;;;;;;15.95;9.57;;;8.10;99.90;;;;;;5038428;28;20060;-72
2021/09/23 05:14:17;;;;;;;18.23;9.98;;;8.10;99.90;;;;;;5038734;28;20158;-75
2021/09/23 05:16:45;;;;;;;22.92;10.38;;;8.20;99.90;;;;;;5037326;28;20060;-72
2021/09/23 05:19:12;;;;;;;21.23;10.25;;;8.20;99.90;;;;;;5036896;28;20133;-71
2021/09/23 05:22:26;;;;;;;18.95;9.55;;;8.10;99.90;;;;;;5044360;28;20150;-71
2021/09/23 05:24:55;;;;;;;19.67;9.38;;;8.10;99.90;;;;;;5053138;28;20447;-71
2021/09/23 05:27:22;;;;;;;16.42;9.48;;;8.00;99.90;;;;;;5047637;28;20103;-71
2021/09/23 05:29:49;;;;;;;21.08;10.88;;;8.00;99.90;;;;;;5047863;28;20084;-71
2021/09/23 05:32:16;;;;;;;20.45;9.32;;;8.10;99.90;;;;;;5044784;28;20171;-71
2021/09/23 05:34:43;;;;;;;21.05;9.95;;;8.10;99.90;;;;;;5047562;28;20092;-71
2021/09/23 05:37:10;;;;;;;18.75;9.30;;;8.10;99.90;;;;;;5043222;28;20048;-71
2021/09/23 05:39:38;;;;;;;27.38;11.32;;;8.10;99.90;;;;;;5043824;28;20080;-71
2021/09/23 05:42:06;;;;;;;18.05;9.88;;;8.20;99.90;;;;;;5046104;28;20076;-71
2021/09/23 05:44:33;;;;;;;24.90;10.05;;;8.20;99.90;;;;;;5047672;28;20136;-71
2021/09/23 05:47:00;;;;;;;17.45;8.85;;;8.30;99.90;;;;;;5049175;28;20087;-71
2021/09/23 05:49:27;;;;;;;22.27;10.23;;;8.30;99.90;;;;;;5046184;28;20481;-72
2021/09/23 05:51:55;;;;;;;18.25;10.02;;;8.40;99.90;;;;;;5044696;28;20474;-71
2021/09/23 05:54:23;;;;;;;19.38;10.63;;;8.40;99.90;;;;;;5041311;28;20132;-71
2021/09/23 05:56:50;;;;;;;24.13;10.10;;;8.50;99.90;;;;;;5041601;28;20053;-71
2021/09/23 05:59:19;;;;;;;20.08;9.25;;;8.50;99.90;;;;;;5040882;28;20060;-71
2021/09/23 06:01:46;;;;;;;20.42;10.75;;;8.60;99.90;;;;;;5038556;28;20085;-72
2021/09/23 06:04:13;;;;;;;18.67;9.02;;;8.70;99.90;;;;;;5037474;28;20249;-71
2021/09/23 06:06:40;;;;;;;16.02;8.48;;;8.80;99.90;;;;;;5036821;28;20519;-71
2021/09/23 06:09:07;;;;;;;15.85;9.73;;;8.80;99.90;;;;;;5041340;28;20143;-72
2021/09/23 06:11:37;;;;;;;18.90;10.10;;;8.80;99.90;;;;;;5046641;28;20072;-71
2021/09/23 06:14:04;;;;;;;17.80;9.80;;;8.90;99.90;;;;;;5046883;28;20127;-71
2021/09/23 06:16:33;;;;;;;18.05;8.93;;;9.00;99.90;;;;;;5046460;28;20098;-72
2021/09/23 06:19:00;;;;;;;19.73;10.27;;;9.10;99.90;;;;;;5045641;28;20472;-71
2021/09/23 06:21:27;;;;;;;19.80;10.70;;;9.20;99.90;;;;;;5044068;28;20056;-71
2021/09/23 06:23:54;;;;;;;21.40;10.93;;;9.20;99.90;;;;;;5044778;28;20041;-70
2021/09/23 06:26:22;;;;;;;15.90;9.07;;;9.40;99.90;;;;;;5038687;28;20057;-71
2021/09/23 06:28:50;;;;;;;20.73;10.38;;;9.40;99.90;;;;;;5043805;28;20060;-71
2021/09/23 06:31:17;;;;;;;20.80;10.57;;;9.50;99.90;;;;;;5035740;28;20132;-71
2021/09/23 06:33:45;;;;;;;17.80;10.18;;;9.60;99.90;;;;;;5037264;28;20167;-71
2021/09/23 06:36:12;;;;;;;18.17;9.80;;;9.70;99.90;;;;;;5037191;28;20127;-71
2021/09/23 06:38:39;;;;;;;17.20;9.40;;;9.80;99.90;;;;;;5037419;28;21662;-72
2021/09/23 06:41:06;;;;;;;18.00;9.38;;;9.80;99.90;;;;;;5036671;28;20598;-71
2021/09/23 06:43:33;;;;;;;24.30;9.77;;;9.90;99.90;;;;;;5036894;28;20052;-72
2021/09/23 06:46:03;;;;;;;17.58;9.02;;;10.00;99.90;;;;;;5037337;28;20091;-70
2021/09/23 06:48:30;;;;;;;19.75;9.10;;;10.00;99.90;;;;;;5038886;28;20840;-72
2021/09/23 06:50:58;;;;;;;16.45;9.43;;;10.00;99.90;;;;;;5040023;28;20125;-72
2021/09/23 06:53:25;;;;;;;18.52;9.15;;;10.10;99.90;;;;;;5036845;28;20049;-70
2021/09/23 06:55:52;;;;;;;18.60;9.30;;;10.20;99.90;;;;;;5038132;28;20504;-66
2021/09/23 06:58:19;;;;;;;17.50;9.00;;;10.50;99.90;;;;;;5036152;28;20044;-71
2021/09/23 07:00:46;;;;;;;18.30;8.80;;;10.50;99.90;;;;;;5031767;28;20083;-71
2021/09/23 07:03:13;;;;;;;21.60;9.02;;;10.50;99.90;;;;;;5034379;28;20174;-72
2021/09/23 07:05:43;;;;;;;16.35;8.88;;;10.50;99.90;;;;;;5036469;28;20063;-71
2021/09/23 07:08:14;;;;;;;16.45;8.70;;;10.60;99.90;;;;;;5036673;28;20099;-71
2021/09/23 07:10:41;;;;;;;17.10;8.52;;;10.70;99.90;;;;;;5035809;28;20060;-71
2021/09/23 07:13:08;;;;;;;19.42;9.30;;;10.80;99.90;;;;;;5040238;28;20131;-72
2021/09/23 07:15:34;;;;;;;15.88;8.75;;;10.80;99.90;;;;;;5039872;28;20072;-71
2021/09/23 07:18:01;;;;;;;17.73;9.00;;;10.90;99.90;;;;;;5041582;28;20078;-72
2021/09/23 07:20:28;;;;;;;15.63;9.23;;;10.90;99.90;;;;;;5037740;28;20422;-70
2021/09/23 07:22:55;;;;;;;19.35;8.50;;;11.10;99.90;;;;;;5038121;28;20143;-72
2021/09/23 07:25:24;;;;;;;13.60;7.40;;;11.30;99.90;;;;;;5036950;28;20517;-72
2021/09/23 07:27:51;;;;;;;14.00;7.50;;;11.40;99.90;;;;;;5036923;28;20078;-71
2021/09/23 07:30:18;;;;;;;15.35;8.45;;;11.50;99.90;;;;;;5036073;28;20057;-70
2021/09/23 07:32:45;;;;;;;15.88;8.02;;;11.50;99.90;;;;;;5035466;28;20131;-71
2021/09/23 07:35:13;;;;;;;16.17;8.05;;;11.50;99.90;;;;;;5037275;28;20083;-69
2021/09/23 07:37:40;;;;;;;13.23;7.90;;;11.60;99.90;;;;;;5036248;28;21572;-71
2021/09/23 07:40:10;;;;;;;11.30;7.03;;;11.70;99.90;;;;;;5033797;28;20083;-71
2021/09/23 07:42:40;;;;;;;14.15;7.82;;;11.80;99.90;;;;;;5032664;28;20163;-70
2021/09/23 07:45:09;;;;;;;18.33;7.90;;;12.00;99.90;;;;;;5027703;28;20144;-69
2021/09/23 07:47:36;;;;;;;14.35;7.28;;;12.20;99.90;;;;;;5036173;28;20044;-69
2021/09/23 07:50:04;;;;;;;16.48;8.70;;;12.30;99.90;;;;;;5036060;28;20048;-69
2021/09/23 07:52:31;;;;;;;15.35;7.57;;;12.60;99.90;;;;;;5035557;28;20045;-71
2021/09/23 07:54:58;;;;;;;17.60;7.43;;;12.90;99.90;;;;;;5034392;28;20139;-71
2021/09/23 07:57:25;;;;;;;13.35;7.45;;;13.20;99.90;;;;;;5034733;28;20481;-70
2021/09/23 07:59:53;;;;;;;12.93;6.93;;;13.30;99.90;;;;;;5034844;28;20122;-70
2021/09/23 08:02:20;;;;;;;14.63;6.90;;;13.40;99.90;;;;;;5025931;28;20076;-71
2021/09/23 08:04:47;;;;;;;16.70;7.50;;;13.70;99.90;;;;;;5025882;28;20670;-70
2021/09/23 08:07:17;;;;;;;12.50;6.10;;;14.30;99.90;;;;;;5028217;28;20985;-71
2021/09/23 08:09:45;;;;;;;12.45;6.82;;;14.80;99.90;;;;;;5034774;28;20476;-71
2021/09/23 08:12:12;;;;;;;14.52;6.97;;;15.60;99.90;;;;;;5032183;28;20464;-67
2021/09/23 08:14:39;;;;;;;12.73;6.00;;;18.30;99.90;;;;;;5039531;28;20075;-69
2021/09/23 08:17:08;;;;;;;11.98;6.32;;;19.40;99.90;;;;;;5036020;28;20141;-67
2021/09/23 08:19:36;;;;;;;10.35;5.97;;;19.20;99.90;;;;;;5037712;28;20135;-70
2021/09/23 08:22:04;;;;;;;14.43;6.32;;;19.60;99.90;;;;;;5041889;28;20058;-69
2021/09/23 08:24:31;;;;;;;10.30;5.45;;;20.20;99.90;;;;;;5037883;28;20514;-70
2021/09/23 08:26:58;;;;;;;8.70;4.97;;;21.00;99.90;;;;;;5039059;28;20765;-70
2021/09/23 08:29:25;;;;;;;9.82;5.43;;;20.60;99.90;;;;;;5039784;28;20059;-70
2021/09/23 08:31:52;;;;;;;9.15;5.63;;;21.30;99.90;;;;;;5040222;28;20139;-70
2021/09/23 08:34:21;;;;;;;10.40;5.57;;;22.10;99.90;;;;;;5032572;28;20045;-70
2021/09/23 08:36:48;;;;;;;10.18;5.47;;;23.30;99.90;;;;;;5044065;28;20139;-70
2021/09/23 08:39:15;;;;;;;10.95;5.10;;;21.30;99.90;;;;;;5043040;28;20134;-70
2021/09/23 08:41:42;;;;;;;9.52;5.25;;;22.40;99.90;;;;;;5043821;28;20851;-69
2021/09/23 08:44:09;;;;;;;12.18;5.00;;;21.50;99.90;;;;;;5045843;28;20071;-70
2021/09/23 08:46:36;;;;;;;9.98;5.35;;;21.90;99.90;;;;;;5040934;28;20048;-70
2021/09/23 08:49:04;;;;;;;10.10;5.28;;;22.80;99.90;;;;;;5036133;28;20084;-70
2021/09/23 08:51:33;;;;;;;9.73;5.70;;;22.70;99.90;;;;;;5036144;28;20457;-70
2021/09/23 08:54:00;;;;;;;9.57;5.15;;;22.20;99.90;;;;;;5035831;28;20542;-69
2021/09/23 08:56:27;;;;;;;8.23;4.50;;;23.50;99.90;;;;;;5035162;28;20135;-70
2021/09/23 08:58:54;;;;;;;8.70;4.70;;;23.50;99.90;;;;;;5035395;28;20160;-70
2021/09/23 09:01:23;;;;;;;10.00;5.20;;;22.00;99.90;;;;;;5035922;28;20060;-70
2021/09/23 09:03:59;;;;;;;11.10;6.05;;;22.70;99.90;;;;;;5039569;28;20525;-70
2021/09/23 09:06:26;;;;;;;8.80;4.90;;;22.90;99.90;;;;;;5039737;28;20132;-70
2021/09/23 09:08:54;;;;;;;12.77;5.50;;;22.90;99.90;;;;;;5040450;28;20287;-70
2021/09/23 09:11:22;;;;;;;8.65;4.82;;;22.70;99.90;;;;;;5040974;28;20052;-70
2021/09/23 09:13:52;;;;;;;11.63;5.22;;;24.40;99.90;;;;;;5038484;28;20147;-70
2021/09/23 09:16:20;;;;;;;9.10;5.45;;;24.10;99.90;;;;;;5036363;28;20055;-70
2021/09/23 09:18:50;;;;;;;8.55;5.07;;;24.80;99.90;;;;;;5040846;28;20096;-70
2021/09/23 09:21:19;;;;;;;9.55;5.00;;;23.80;99.90;;;;;;5041880;28;20197;-69
2021/09/23 09:23:48;;;;;;;10.32;4.82;;;23.30;99.90;;;;;;5044552;28;20106;-70
2021/09/23 09:26:27;;;;;;;11.02;5.22;;;24.20;99.90;;;;;;5043475;28;20045;-70
2021/09/23 09:28:55;;;;;;;10.25;4.70;;;23.80;99.90;;;;;;5046376;28;20056;-69
2021/09/23 09:31:23;;;;;;;9.73;4.20;;;23.10;99.90;;;;;;5044113;28;20132;-71
2021/09/23 09:33:51;;;;;;;11.25;5.10;;;23.40;99.90;;;;;;5047520;28;20055;-70
2021/09/23 09:36:28;;;;;;;8.75;4.60;;;22.70;99.90;;;;;;5041806;28;20127;-70
2021/09/23 09:38:57;;;;;;;8.10;4.38;;;23.10;99.90;;;;;;5043512;28;20408;-70
2021/09/23 09:41:27;;;;;;;9.80;4.80;;;22.40;99.90;;;;;;5044010;28;20076;-70
2021/09/23 09:43:56;;;;;;;12.82;5.32;;;22.80;99.90;;;;;;5039277;28;20136;-70
2021/09/23 09:46:25;;;;;;;8.60;4.63;;;22.90;99.90;;;;;;5041478;28;20068;-70
2021/09/23 09:48:53;;;;;;;9.75;4.60;;;23.10;99.90;;;;;;5046702;28;20080;-70
2021/09/23 09:51:34;;;;;;;10.73;5.10;;;23.70;99.90;;;;;;5047756;28;20132;-70
2021/09/23 09:54:02;;;;;;;13.82;4.45;;;24.20;99.90;;;;;;5047305;28;20056;-70
2021/09/23 09:56:30;;;;;;;8.10;4.55;;;25.40;99.90;;;;;;5046272;28;20072;-70
2021/09/23 09:59:14;;;;;;;11.05;5.03;;;25.60;99.90;;;;;;5047726;28;20088;-70
2021/09/23 10:01:42;;;;;;;9.48;4.55;;;24.10;99.90;;;;;;5047193;28;20488;-70
2021/09/23 10:04:10;;;;;;;8.43;4.28;;;23.90;99.90;;;;;;5042104;28;20080;-70
2021/09/23 10:06:39;;;;;;;14.43;5.07;;;24.80;99.90;;;;;;5001370;28;1213993;-70
2021/09/23 10:09:06;;;;;;;12.52;4.88;;;25.70;99.90;;;;;;5042684;28;20041;-70
2021/09/23 10:11:36;;;;;;;10.38;4.20;;;25.90;99.90;;;;;;5039412;28;20472;-71
2021/09/23 10:14:04;;;;;;;9.23;5.13;;;26.60;99.90;;;;;;5043604;28;20131;-70
2021/09/23 10:16:32;;;;;;;9.15;4.47;;;27.20;99.90;;;;;;5042030;28;20081;-70
2021/09/23 10:19:00;;;;;;;8.88;5.03;;;26.90;99.90;;;;;;5036823;28;20051;-70
2021/09/23 10:21:28;;;;;;;10.25;4.80;;;26.90;99.90;;;;;;5037754;28;20131;-71
2021/09/23 10:23:57;;;;;;;9.05;4.40;;;27.80;99.90;;;;;;5043027;28;20053;-71
2021/09/23 10:26:27;;;;;;;14.95;4.40;;;27.90;99.90;;;;;;5040313;28;20168;-71
2021/09/23 10:28:58;;;;;;;10.95;4.50;;;25.60;99.90;;;;;;5044104;28;20128;-70
2021/09/23 10:31:31;;;;;;;7.57;3.65;;;25.40;99.90;;;;;;5041035;28;20072;-71
2021/09/23 10:33:59;;;;;;;9.85;3.97;;;25.10;99.90;;;;;;5046492;28;20071;-71
2021/09/23 10:36:28;;;;;;;9.93;3.67;;;24.70;99.90;;;;;;5046937;28;20048;-71
2021/09/23 10:38:56;;;;;;;9.57;3.80;;;24.80;99.90;;;;;;5049319;28;20523;-71
2021/09/23 10:41:25;;;;;;;8.43;3.35;;;25.00;99.90;;;;;;5046575;28;20500;-70
2021/09/23 10:43:53;;;;;;;10.48;3.28;;;26.30;99.90;;;;;;5049471;28;20114;-70
2021/09/23 10:46:25;;;;;;;9.32;3.58;;;27.00;99.90;;;;;;5048904;28;20075;-71
2021/09/23 10:48:53;;;;;;;9.50;4.10;;;28.50;99.90;;;;;;5050057;28;20577;-70
2021/09/23 10:51:21;;;;;;;8.23;4.07;;;27.80;99.90;;;;;;5047332;28;20175;-71
2021/09/23 10:53:52;;;;;;;14.07;3.78;;;28.90;99.90;;;;;;5047144;28;20827;-71
2021/09/23 10:56:20;;;;;;;7.70;3.40;;;26.70;99.90;;;;;;5049132;28;20048;-70
2021/09/23 10:58:48;;;;;;;8.85;3.40;;;27.30;99.90;;;;;;5047361;28;20056;-70
2021/09/23 11:01:28;;;;;;;5.55;3.10;;;26.30;99.90;;;;;;5048332;28;20155;-70
2021/09/23 11:03:57;;;;;;;8.52;3.88;;;26.90;99.90;;;;;;5049488;28;20056;-71
2021/09/23 11:06:32;;;;;;;6.85;3.75;;;27.00;99.90;;;;;;5049574;28;20528;-71
2021/09/23 11:09:15;;;;;;;10.95;4.40;;;27.30;99.90;;;;;;5048635;28;20052;-71
2021/09/23 11:11:45;;;;;;;8.15;4.10;;;27.30;99.90;;;;;;5044560;28;20225;-70
2021/09/23 11:14:14;;;;;;;6.88;3.80;;;28.80;99.90;;;;;;5046706;28;20386;-70
2021/09/23 11:16:46;;;;;;;9.52;3.63;;;29.90;99.90;;;;;;5045172;28;21484;-70
2021/09/23 11:19:16;;;;;;;7.68;3.75;;;30.30;99.90;;;;;;5042813;28;20048;-71
2021/09/23 11:21:44;;;;;;;7.03;3.80;;;31.50;99.90;;;;;;5042115;28;20056;-71
2021/09/23 11:24:11;;;;;;;7.55;3.10;;;31.20;99.90;;;;;;5039913;28;20587;-70
2021/09/23 11:26:39;;;;;;;8.25;3.80;;;30.60;99.90;;;;;;5035702;28;20135;-70
2021/09/23 11:29:07;;;;;;;8.98;3.97;;;30.70;99.90;;;;;;5035837;28;20166;-71
2021/09/23 11:31:48;;;;;;;6.03;3.40;;;30.00;99.90;;;;;;5037856;28;20048;-71
2021/09/23 11:34:33;;;;;;;6.10;3.47;;;30.00;99.90;;;;;;5038260;28;20139;-70
2021/09/23 11:37:01;;;;;;;8.05;3.47;;;30.00;99.90;;;;;;5034274;28;20057;-71
2021/09/23 11:39:28;;;;;;;7.00;3.30;;;30.60;99.90;;;;;;5034750;28;20060;-71
2021/09/23 11:42:10;;;;;;;7.65;3.40;;;30.40;99.90;;;;;;5038959;28;20068;-70
2021/09/23 11:44:37;;;;;;;7.20;3.10;;;29.60;99.90;;;;;;5037531;28;20093;-70
2021/09/23 11:47:12;;;;;;;14.55;3.58;;;29.50;99.90;;;;;;5041873;28;21220;-71
2021/09/23 11:49:39;;;;;;;7.65;2.90;;;28.50;99.90;;;;;;5040438;28;20647;-71
2021/09/23 11:52:06;;;;;;;8.45;3.25;;;29.80;99.80;;;;;;5041361;28;20324;-71
2021/09/23 11:54:38;;;;;;;8.20;2.97;;;30.30;99.50;;;;;;5038794;28;20938;-71
2021/09/23 11:57:05;;;;;;;6.90;3.22;;;28.30;99.90;;;;;;5036617;28;20111;-70
2021/09/23 11:59:33;;;;;;;11.07;3.92;;;29.50;99.90;;;;;;5039671;28;20512;-70
2021/09/23 12:02:00;;;;;;;10.75;3.13;;;28.10;99.90;;;;;;5037744;28;20049;-70
2021/09/23 12:04:32;;;;;;;7.03;3.42;;;27.80;99.90;;;;;;5034914;28;20053;-70
2021/09/23 12:07:03;;;;;;;9.50;3.15;;;28.60;99.90;;;;;;5034924;28;20048;-71
2021/09/23 12:09:30;;;;;;;12.73;3.80;;;27.50;99.90;;;;;;5035375;28;20072;-70
2021/09/23 12:11:57;;;;;;;7.55;3.13;;;27.20;99.90;;;;;;5033114;28;20070;-70
2021/09/23 12:14:24;;;;;;;9.30;3.40;;;26.80;99.90;;;;;;5033032;28;20080;-71
2021/09/23 12:17:01;;;;;;;6.20;3.30;;;27.90;99.90;;;;;;5032860;28;20419;-71
2021/09/23 12:19:30;;;;;;;7.28;3.10;;;27.20;99.80;;;;;;5033322;28;20056;-70
2021/09/23 12:21:59;;;;;;;6.53;2.78;;;25.20;99.90;;;;;;5037393;28;20144;-70
2021/09/23 12:24:34;;;;;;;5.93;3.33;;;25.60;99.90;;;;;;5036907;28;20056;-71
2021/09/23 12:27:02;;;;;;;7.43;3.20;;;26.50;99.90;;;;;;5036118;28;20048;-70
2021/09/23 12:29:29;;;;;;;9.60;3.40;;;26.40;99.90;;;;;;5034881;28;20057;-71
2021/09/23 12:32:04;;;;;;;8.68;3.65;;;26.30;99.90;;;;;;5034843;28;20103;-71
2021/09/23 12:34:40;;;;;;;9.80;3.08;;;25.60;99.90;;;;;;5040958;28;20048;-71
2021/09/23 12:37:08;;;;;;;9.80;3.92;;;26.40;99.90;;;;;;5046338;28;21103;-71
2021/09/23 12:39:37;;;;;;;8.60;3.30;;;25.90;99.90;;;;;;5047074;28;20048;-71
2021/09/23 12:42:11;;;;;;;5.68;2.95;;;26.20;99.90;;;;;;5044059;28;20055;-71
2021/09/23 12:44:40;;;;;;;5.93;2.97;;;26.60;99.90;;;;;;5038218;28;20374;-71
2021/09/23 12:47:17;;;;;;;8.55;3.38;;;27.20;99.60;;;;;;5038965;28;20084;-71
2021/09/23 12:49:59;;;;;;;10.40;2.95;;;27.70;99.30;;;;;;5042039;28;20575;-71